Lakefield, Canada
Current Conditions -  °F | °C
As of 5:00 AM on Monday 26 Jan 2015 (Local Time) from CYPQ Reporting Station
Broken Clouds Broken Clouds  
Wind Chill: -25°   Ceiling: 19000
Heat Index: -17°   Visibility: 9mi
Dew Point: -20°   Wind: 8mph
Humidity: 78%   Direction: 70°ENE
Pressure: 30.06"   Gusts: NA
Location:  44.43°N, 78.27°W
Report Text: CYPQ 261000Z AUTO 07007KT 9SM BKN190 BKN210 M17/M20 A3006 RMK SLP197
Loading
Personal Weather Stations






























Interactive Weather Map New forecast layout! Learn more

10-Day Weather Forecast

Advertisements
Track Severe Weather on mobile